Time;durP1;ratioP1;P1;durP2;ratioP2;P2;SDS_P1;SDS_P2;PMS_P1;PMS_P2;Temp;Humidity;BMP_temperature;BMP_pressure;BME280_temperature;BME280_humidity;BME280_pressure;Samples;Min_cycle;Max_cycle;Signal;HPM_P1;HPM_P2
2021/08/08 00:01:26;;;;;;;2.50;1.70;;;;;;;18.81;57.50;95031.50;5111677;27;20067;-69
2021/08/08 00:03:54;;;;;;;5.00;1.58;;;;;;;18.87;56.89;95032.25;5111908;27;20484;-69
2021/08/08 00:06:37;;;;;;;2.33;1.58;;;;;;;18.78;57.57;95021.50;5111211;27;20428;-69
2021/08/08 00:09:03;;;;;;;1.63;1.30;;;;;;;18.69;58.19;95021.31;5111994;27;20031;-69
2021/08/08 00:11:30;;;;;;;2.47;1.60;;;;;;;18.69;57.83;95016.03;5112429;27;20513;-69
2021/08/08 00:13:57;;;;;;;2.00;1.70;;;;;;;18.68;58.82;95024.22;5110540;27;20125;-69
2021/08/08 00:16:26;;;;;;;3.70;1.70;;;;;;;18.61;58.86;95015.84;5110771;27;20047;-69
2021/08/08 00:18:53;;;;;;;4.32;1.67;;;;;;;18.53;59.48;95023.28;5110730;27;20039;-69
2021/08/08 00:21:20;;;;;;;2.13;1.60;;;;;;;18.44;59.56;95014.38;5112920;27;20092;-69
2021/08/08 00:23:47;;;;;;;1.98;1.60;;;;;;;18.53;59.12;95028.56;5110909;27;20447;-69
2021/08/08 00:26:13;;;;;;;2.25;1.80;;;;;;;18.46;59.74;95028.09;5111058;27;20089;-69
2021/08/08 00:28:40;;;;;;;3.50;1.77;;;;;;;18.44;60.12;95024.13;5111892;27;20039;-69
2021/08/08 00:31:08;;;;;;;1.52;1.42;;;;;;;18.49;59.99;95027.53;5092026;27;20049;-69
2021/08/08 00:33:35;;;;;;;2.10;1.40;;;;;;;18.38;59.76;95027.88;5106929;27;20138;-69
2021/08/08 00:36:03;;;;;;;4.22;1.55;;;;;;;18.39;59.68;95032.88;5091198;27;20118;-70
2021/08/08 00:38:30;;;;;;;2.65;1.30;;;;;;;18.48;59.51;95031.22;5092035;27;20096;-69
2021/08/08 00:40:59;;;;;;;3.38;1.92;;;;;;;18.50;59.95;95034.38;5092229;28;20397;-69
2021/08/08 00:43:29;;;;;;;3.85;2.17;;;;;;;18.49;59.40;95027.53;5093189;27;20044;-69
2021/08/08 00:45:57;;;;;;;2.13;1.92;;;;;;;18.54;59.35;95034.59;5092151;28;20431;-69
2021/08/08 00:48:24;;;;;;;2.95;1.45;;;;;;;18.56;59.43;95031.69;5110293;27;20077;-69
2021/08/08 00:50:51;;;;;;;2.03;1.80;;;;;;;18.61;59.29;95039.56;5111256;27;20088;-69
2021/08/08 00:53:27;;;;;;;2.00;1.50;;;;;;;18.54;58.74;95032.75;5092116;28;20146;-70
2021/08/08 00:55:58;;;;;;;2.80;1.88;;;;;;;18.57;59.46;95043.84;5092530;27;20036;-69
2021/08/08 00:58:27;;;;;;;3.42;1.65;;;;;;;18.44;59.71;95030.22;5091291;28;20048;-70
2021/08/08 01:01:03;;;;;;;3.22;1.63;;;;;;;18.46;60.09;95043.91;5091365;27;20048;-69
2021/08/08 01:03:31;;;;;;;1.75;1.60;;;;;;;18.40;60.17;95050.28;5076297;28;20051;-70
2021/08/08 01:06:28;;;;;;;2.38;1.60;;;;;;;18.40;59.62;95050.28;5091201;28;20032;-70
2021/08/08 01:09:00;;;;;;;3.13;2.03;;;;;;;18.17;60.87;95045.66;5092078;28;20063;-69
2021/08/08 01:11:28;;;;;;;16.60;3.95;;;;;;;18.11;60.70;95048.38;5095253;27;20043;-69
2021/08/08 01:13:57;;;;;;;1.92;1.55;;;;;;;18.11;60.48;95043.09;5091649;28;20103;-69
2021/08/08 01:16:27;;;;;;;3.83;1.60;;;;;;;18.15;60.80;95049.38;5091399;28;20532;-69
2021/08/08 01:18:58;;;;;;;4.35;1.80;;;;;;;18.19;60.58;95051.47;5095644;27;20039;-70
2021/08/08 01:21:27;;;;;;;4.18;2.00;;;;;;;18.20;60.18;95051.19;5111318;27;20046;-70
2021/08/08 01:23:57;;;;;;;5.53;1.85;;;;;;;18.30;60.41;95060.91;5109986;27;20027;-70
2021/08/08 01:26:27;;;;;;;2.72;2.00;;;;;;;18.32;59.13;95058.78;5091869;28;20043;-69
2021/08/08 01:28:56;;;;;;;2.28;1.83;;;;;;;18.29;58.59;95048.75;5091241;28;20070;-69
2021/08/08 01:31:25;;;;;;;2.28;1.75;;;;;;;18.37;59.13;95060.59;5093107;28;20491;-69
2021/08/08 01:33:52;;;;;;;3.78;1.80;;;;;;;18.37;58.87;95053.47;5090544;27;20054;-69
2021/08/08 01:36:20;;;;;;;2.03;1.80;;;;;;;18.46;57.84;95064.22;5092212;28;20661;-69
2021/08/08 01:38:57;;;;;;;4.15;1.90;;;;;;;18.45;58.00;95058.13;5092440;28;20039;-69
2021/08/08 01:41:28;;;;;;;3.20;1.67;;;;;;;18.46;58.17;95065.00;5109495;27;20035;-69
2021/08/08 01:43:58;;;;;;;2.28;1.70;;;;;;;18.44;57.26;95056.59;5093380;28;20066;-69
2021/08/08 01:46:27;;;;;;;2.67;1.80;;;;;;;18.44;57.99;95061.03;5109299;28;20048;-69
2021/08/08 01:49:09;;;;;;;4.32;2.38;;;;;;;18.43;58.42;95059.50;5093043;28;20143;-69
2021/08/08 01:51:37;;;;;;;3.33;1.90;;;;;;;18.39;58.50;95059.25;5091116;28;20051;-69
2021/08/08 01:54:05;;;;;;;2.63;1.88;;;;;;;18.32;59.88;95058.78;5091133;28;20432;-69
2021/08/08 01:56:34;;;;;;;4.97;2.00;;;;;;;18.27;59.57;95062.22;5093273;28;20409;-69
2021/08/08 01:59:02;;;;;;;5.20;1.98;;;;;;;18.19;59.71;95056.75;5091050;28;20051;-69
2021/08/08 02:01:30;;;;;;;2.03;1.50;;;;;;;18.10;60.17;95062.59;5090279;28;20138;-69
2021/08/08 02:04:22;;;;;;;2.67;1.80;;;;;;;18.07;60.36;95063.13;5092215;28;20066;-69
2021/08/08 02:06:58;;;;;;;3.53;1.85;;;;;;;17.84;61.88;95069.00;5092339;28;20040;-69
2021/08/08 02:09:25;;;;;;;3.58;1.75;;;;;;;17.71;61.14;95071.16;5090920;28;20063;-69
2021/08/08 02:11:52;;;;;;;2.92;1.65;;;;;;;17.77;60.39;95075.38;5109127;28;20048;-69
2021/08/08 02:14:23;;;;;;;2.30;1.60;;;;;;;17.71;61.33;95071.16;5094021;28;20517;-69
2021/08/08 02:16:52;;;;;;;2.72;1.70;;;;;;;17.56;62.02;95081.78;5094195;28;20054;-69
2021/08/08 02:19:20;;;;;;;5.25;2.20;;;;;;;17.45;63.82;95072.31;5095623;27;20063;-69
2021/08/08 02:21:51;;;;;;;16.00;2.50;;;;;;;17.39;64.50;95074.97;5094969;27;20170;-69
2021/08/08 02:24:22;;;;;;;3.75;2.30;;;;;;;17.41;65.27;95071.28;5094861;28;20054;-69
2021/08/08 02:27:03;;;;;;;5.15;2.70;;;;;;;17.36;66.34;95091.31;5094834;27;20043;-69
2021/08/08 02:29:30;;;;;;;4.20;2.20;;;;;;;17.32;67.31;95087.63;5094699;28;20071;-69
2021/08/08 02:31:57;;;;;;;4.97;2.45;;;;;;;17.19;67.53;95081.06;5095991;27;20051;-69
2021/08/08 02:34:32;;;;;;;6.30;2.72;;;;;;;17.15;67.84;95089.75;5111358;27;20051;-69
2021/08/08 02:36:59;;;;;;;10.25;3.63;;;;;;;17.09;67.51;95090.84;5094278;28;20044;-69
2021/08/08 02:39:26;;;;;;;16.10;3.63;;;;;;;17.13;67.39;95091.88;5092000;28;21840;-69
2021/08/08 02:41:53;;;;;;;9.30;3.17;;;;;;;17.12;66.93;95090.28;5093532;27;20047;-69
2021/08/08 02:44:21;;;;;;;7.35;3.00;;;;;;;17.07;67.41;95087.66;5095936;28;20066;-69
2021/08/08 02:46:48;;;;;;;14.57;2.95;;;;;;;17.07;66.98;95092.91;5094799;27;20096;-69
2021/08/08 02:49:16;;;;;;;10.48;3.17;;;;;;;17.00;68.17;95098.47;5096459;28;20075;-69
2021/08/08 02:51:44;;;;;;;7.10;3.13;;;;;;;16.92;68.66;95107.66;5093238;27;20046;-69
2021/08/08 02:54:14;;;;;;;12.60;3.35;;;;;;;16.85;68.81;95099.25;5091981;28;20046;-69
2021/08/08 02:56:42;;;;;;;9.57;3.33;;;;;;;16.79;68.69;95105.53;5091314;27;20048;-69
2021/08/08 02:59:09;;;;;;;13.07;3.38;;;;;;;16.71;69.38;95100.78;5095591;27;20119;-70
2021/08/08 03:01:44;;;;;;;11.48;3.28;;;;;;;16.71;69.13;95106.84;5094270;28;20089;-69
2021/08/08 03:04:11;;;;;;;11.25;3.25;;;;;;;16.69;69.69;95113.41;5092801;28;20493;-69
2021/08/08 03:06:47;;;;;;;10.00;3.05;;;;;;;16.63;69.89;95104.75;5093143;27;20046;-69
2021/08/08 03:09:17;;;;;;;13.65;3.30;;;;;;;16.55;69.79;95111.31;5094471;28;20055;-69
2021/08/08 03:11:47;;;;;;;6.43;2.75;;;;;;;16.51;70.06;95115.53;5095171;27;20067;-69
2021/08/08 03:14:18;;;;;;;9.50;3.50;;;;;;;16.44;69.84;95117.63;5070776;28;20048;-69
2021/08/08 03:16:47;;;;;;;8.50;4.03;;;;;;;16.40;69.78;95116.53;5072065;28;20044;-69
2021/08/08 03:19:17;;;;;;;5.10;2.78;;;;;;;16.35;69.56;95121.78;5070214;28;20124;-69
2021/08/08 03:21:45;;;;;;;7.45;3.20;;;;;;;16.30;70.75;95117.31;5069978;28;20036;-69
2021/08/08 03:24:11;;;;;;;9.40;3.30;;;;;;;16.29;70.64;95125.47;5071751;28;20044;-69
2021/08/08 03:26:38;;;;;;;7.38;3.30;;;;;;;16.18;70.46;95114.91;5052032;28;20049;-70
2021/08/08 03:29:09;;;;;;;5.53;3.10;;;;;;;16.24;70.22;95113.88;5070884;28;20036;-69
2021/08/08 03:31:37;;;;;;;10.30;2.97;;;;;;;16.23;70.69;95122.81;5070693;28;20469;-70
2021/08/08 03:34:05;;;;;;;13.93;4.72;;;;;;;16.23;71.19;95125.44;5066846;28;20120;-70
2021/08/08 03:36:32;;;;;;;6.03;2.92;;;;;;;16.13;72.10;95122.78;5067585;28;20035;-69
2021/08/08 03:39:01;;;;;;;8.70;2.58;;;;;;;16.03;71.77;95122.75;5071663;28;20032;-70
2021/08/08 03:41:29;;;;;;;9.40;2.92;;;;;;;15.97;71.60;95110.63;5055607;28;20472;-69
2021/08/08 03:43:56;;;;;;;5.45;2.83;;;;;;;15.99;72.20;95126.94;5069642;28;20048;-69
2021/08/08 03:46:23;;;;;;;6.90;3.13;;;;;;;16.02;71.72;95121.16;5069888;28;20575;-70
2021/08/08 03:48:51;;;;;;;7.57;2.95;;;;;;;15.96;71.79;95109.06;5069041;28;20102;-69
2021/08/08 03:51:18;;;;;;;8.15;3.33;;;;;;;15.99;72.40;95121.66;5071280;28;20456;-69
2021/08/08 03:53:45;;;;;;;10.20;2.90;;;;;;;15.99;72.33;95105.91;5070454;28;20040;-69
2021/08/08 03:56:13;;;;;;;6.07;3.55;;;;;;;15.98;72.08;95104.34;5068504;28;20179;-69
2021/08/08 03:58:40;;;;;;;4.85;3.10;;;;;;;16.05;72.61;95110.94;5071500;28;20044;-69
2021/08/08 04:01:07;;;;;;;6.70;3.38;;;;;;;16.03;72.92;95112.25;5068463;28;20407;-69
2021/08/08 04:03:35;;;;;;;8.35;4.13;;;;;;;16.05;73.10;95120.66;5068446;28;20048;-68
2021/08/08 04:06:04;;;;;;;4.70;2.92;;;;;;;16.05;72.93;95125.91;5068698;28;20051;-69
2021/08/08 04:08:31;;;;;;;11.65;3.45;;;;;;;16.04;74.26;95135.66;5067263;28;20522;-69
2021/08/08 04:10:58;;;;;;;27.88;11.90;;;;;;;16.07;74.77;95139.56;5069405;28;20113;-69
2021/08/08 04:13:28;;;;;;;27.17;13.63;;;;;;;15.91;74.69;95130.06;5069371;28;20106;-69
2021/08/08 04:15:55;;;;;;;18.27;7.45;;;;;;;16.01;74.85;95140.63;5069626;28;20036;-69
2021/08/08 04:18:24;;;;;;;10.18;4.50;;;;;;;16.02;75.25;95144.81;5063973;28;20048;-69
2021/08/08 04:20:51;;;;;;;9.25;4.90;;;;;;;16.04;74.23;95140.91;5066829;28;20044;-69
2021/08/08 04:23:19;;;;;;;7.72;3.70;;;;;;;16.11;74.65;95143.25;5069608;28;20041;-69
2021/08/08 04:25:47;;;;;;;5.53;3.22;;;;;;;16.13;73.90;95133.28;5067819;28;20052;-69
2021/08/08 04:28:14;;;;;;;17.13;9.18;;;;;;;16.32;73.37;95140.72;5066483;28;20048;-69
2021/08/08 04:30:42;;;;;;;15.00;9.13;;;;;;;16.38;73.61;95147.56;5067811;28;20048;-69
2021/08/08 04:33:09;;;;;;;10.18;5.25;;;;;;;16.38;73.55;95139.66;5068477;28;20075;-69
2021/08/08 04:35:37;;;;;;;7.22;3.92;;;;;;;16.43;72.64;95152.81;5064242;28;20314;-69
2021/08/08 04:38:06;;;;;;;16.42;6.35;;;;;;;16.56;73.89;95157.56;5065720;28;20740;-69
2021/08/08 04:40:36;;;;;;;12.18;6.82;;;;;;;16.69;73.38;95155.50;5066028;28;20043;-69
2021/08/08 04:43:05;;;;;;;9.80;3.78;;;;;;;16.70;73.25;95142.09;5067914;28;20486;-69
2021/08/08 04:45:34;;;;;;;5.05;3.38;;;;;;;16.85;72.70;95159.75;5070321;28;20036;-69
2021/08/08 04:48:01;;;;;;;6.45;4.00;;;;;;;16.87;72.31;95160.31;5066429;28;20501;-69
2021/08/08 04:50:30;;;;;;;4.57;3.38;;;;;;;16.95;72.10;95159.75;5066441;28;20044;-69
2021/08/08 04:52:57;;;;;;;5.72;3.42;;;;;;;16.92;72.52;95144.50;5067359;28;20105;-69
2021/08/08 04:55:24;;;;;;;13.38;3.15;;;;;;;16.96;71.83;95155.28;5066096;28;20037;-69
2021/08/08 04:57:51;;;;;;;7.63;3.38;;;;;;;17.03;72.98;95165.56;5064585;28;20041;-69
2021/08/08 05:00:20;;;;;;;7.82;3.72;;;;;;;17.06;72.04;95154.50;5068678;28;20044;-69
2021/08/08 05:02:49;;;;;;;5.75;3.05;;;;;;;17.16;71.06;95159.75;5067319;28;20039;-70
2021/08/08 05:05:17;;;;;;;13.75;3.70;;;;;;;17.24;71.20;95167.13;5064178;28;20121;-70
2021/08/08 05:07:46;;;;;;;14.18;3.42;;;;;;;17.36;70.48;95165.00;5067011;28;20044;-69
2021/08/08 05:10:16;;;;;;;8.43;3.00;;;;;;;17.32;70.42;95166.59;5065761;28;20048;-69
2021/08/08 05:12:47;;;;;;;9.93;3.13;;;;;;;17.35;69.59;95163.44;5079587;27;20044;-72
2021/08/08 05:15:14;;;;;;;7.93;3.08;;;;;;;17.48;68.91;95177.09;5094860;27;20104;-70
2021/08/08 05:17:41;;;;;;;5.50;3.08;;;;;;;17.57;67.57;95175.50;5112700;27;20031;-69
2021/08/08 05:20:11;;;;;;;8.63;2.92;;;;;;;17.66;67.45;95181.81;5078495;27;20047;-70
2021/08/08 05:22:38;;;;;;;4.07;2.70;;;;;;;17.73;67.28;95190.22;5093826;27;20047;-70
2021/08/08 05:25:06;;;;;;;3.65;2.97;;;;;;;17.72;65.84;95188.66;5092880;28;20044;-70
2021/08/08 05:27:34;;;;;;;4.93;2.58;;;;;;;17.77;66.54;95185.22;5113547;27;20046;-70
2021/08/08 05:30:06;;;;;;;7.90;2.88;;;;;;;17.81;66.53;95190.72;5093604;27;20055;-70
2021/08/08 05:32:35;;;;;;;8.40;2.80;;;;;;;17.82;66.96;95187.06;5094120;28;20043;-70
2021/08/08 05:35:04;;;;;;;3.38;2.40;;;;;;;17.93;66.29;95186.00;5093362;27;20066;-70
2021/08/08 05:37:31;;;;;;;6.18;3.25;;;;;;;18.01;68.41;95188.09;5093496;28;20466;-70
2021/08/08 05:40:04;;;;;;;5.90;2.80;;;;;;;18.05;67.05;95181.22;5096387;28;20039;-70
2021/08/08 05:42:33;;;;;;;;;;;;;;;18.20;67.91;95182.22;5093199;28;20416;-70
2021/08/08 05:45:04;;;;;;;7.93;2.67;;;;;;;18.28;65.83;95179.81;5092485;28;19923;-69
2021/08/08 05:47:31;;;;;;;3.88;3.47;;;;;;;18.35;66.39;95174.25;5114123;27;20425;-69
2021/08/08 05:49:58;;;;;;;5.68;3.03;;;;;;;18.40;66.50;95176.88;5090792;28;20396;-70
2021/08/08 05:52:25;;;;;;;7.47;3.40;;;;;;;18.50;66.01;95187.34;5072997;28;20053;-70
2021/08/08 05:54:52;;;;;;;6.65;2.80;;;;;;;18.64;65.46;95181.47;5109865;28;20042;-69
2021/08/08 05:57:20;;;;;;;5.15;2.75;;;;;;;18.75;67.98;95185.63;5108699;28;20035;-70
2021/08/08 05:59:47;;;;;;;4.70;2.70;;;;;;;18.87;65.75;95175.56;5088784;28;20509;-68
2021/08/08 06:02:13;;;;;;;5.50;3.00;;;;;;;19.00;63.80;95176.78;5088725;28;20047;-68
2021/08/08 06:04:40;;;;;;;5.68;3.58;;;;;;;19.05;64.45;95174.09;5090316;28;20059;-68
2021/08/08 06:07:07;;;;;;;3.78;3.15;;;;;;;19.22;63.49;95176.34;5088244;28;20043;-68
2021/08/08 06:09:34;;;;;;;6.82;3.38;;;;;;;19.21;63.66;95164.22;5089356;28;20517;-68
2021/08/08 06:12:02;;;;;;;9.93;3.38;;;;;;;19.40;63.68;95176.72;5088121;28;20055;-68
2021/08/08 06:14:30;;;;;;;6.40;3.15;;;;;;;19.53;63.17;95181.34;5089628;28;20047;-68
2021/08/08 06:16:56;;;;;;;5.55;3.10;;;;;;;19.65;63.11;95184.41;5088265;28;20112;-68
2021/08/08 06:19:25;;;;;;;5.88;3.20;;;;;;;19.84;61.40;95181.06;5091260;28;20050;-70
2021/08/08 06:21:52;;;;;;;5.88;3.55;;;;;;;19.94;60.29;95188.91;5089262;28;20044;-69
2021/08/08 06:24:20;;;;;;;13.73;3.03;;;;;;;20.01;59.72;95181.41;5091653;28;20047;-68
2021/08/08 06:26:47;;;;;;;3.35;3.05;;;;;;;20.05;60.28;95177.13;5107239;28;20063;-69
2021/08/08 06:29:14;;;;;;;5.68;2.95;;;;;;;20.23;58.66;95178.25;5093633;28;20131;-69
2021/08/08 06:31:43;;;;;;;3.33;3.03;;;;;;;20.33;58.87;95180.00;5090684;28;20055;-69
2021/08/08 06:34:10;;;;;;;3.92;2.53;;;;;;;20.39;57.94;95176.19;5106292;28;20043;-70
2021/08/08 06:36:37;;;;;;;8.40;2.63;;;;;;;20.54;57.74;95179.72;5089417;28;20069;-70
2021/08/08 06:39:05;;;;;;;4.75;2.55;;;;;;;20.71;56.92;95177.41;5110433;28;20039;-70
2021/08/08 06:41:33;;;;;;;4.45;2.63;;;;;;;20.85;55.95;95177.47;5088861;28;20419;-69
2021/08/08 06:44:03;;;;;;;2.67;2.10;;;;;;;20.99;55.34;95169.56;5093978;28;20055;-70
2021/08/08 06:46:32;;;;;;;5.47;2.90;;;;;;;21.17;55.08;95179.34;5088304;28;20134;-69
2021/08/08 06:48:59;;;;;;;3.60;2.60;;;;;;;21.26;55.75;95173.41;5104967;28;20156;-69
2021/08/08 06:51:26;;;;;;;5.22;2.70;;;;;;;21.45;54.19;95184.75;5111189;28;20043;-69
2021/08/08 06:53:54;;;;;;;8.02;2.22;;;;;;;21.61;54.72;95181.84;5090830;28;20040;-70
2021/08/08 06:56:21;;;;;;;3.80;2.28;;;;;;;21.77;54.29;95183.94;5088270;28;20051;-69
2021/08/08 06:59:19;;;;;;;4.70;3.25;;;;;;;22.06;52.61;95182.88;5091867;28;20047;-69
2021/08/08 07:01:47;;;;;;;1.98;1.60;;;;;;;22.28;52.89;95182.19;5096142;27;20056;-70
2021/08/08 07:04:15;;;;;;;8.57;2.17;;;;;;;22.47;52.41;95191.91;5093272;27;20506;-70
2021/08/08 07:06:42;;;;;;;4.82;2.08;;;;;;;22.59;49.27;95188.75;5093255;28;20052;-69
2021/08/08 07:09:09;;;;;;;2.50;2.20;;;;;;;22.74;49.70;95190.28;5093068;28;20043;-69
2021/08/08 07:11:39;;;;;;;5.10;2.13;;;;;;;22.91;49.72;95187.78;5091680;27;20564;-70
2021/08/08 07:14:15;;;;;;;2.72;1.90;;;;;;;23.06;49.31;95187.44;5091193;28;20131;-69
2021/08/08 07:16:42;;;;;;;2.15;1.80;;;;;;;23.19;47.45;95190.34;5094509;27;20121;-69
2021/08/08 07:19:09;;;;;;;4.68;1.70;;;;;;;23.36;47.89;95182.50;5081152;28;20039;-70
2021/08/08 07:21:36;;;;;;;3.95;2.10;;;;;;;23.56;47.76;95193.72;5112011;27;20078;-70
2021/08/08 07:24:12;;;;;;;7.72;2.00;;;;;;;23.74;45.96;95184.72;5093280;28;20062;-71
2021/08/08 07:26:39;;;;;;;3.28;2.25;;;;;;;23.80;46.29;95180.09;5112684;27;20044;-69
2021/08/08 07:29:06;;;;;;;1.95;1.75;;;;;;;24.03;46.60;95170.16;5092842;27;20067;-69
2021/08/08 07:31:53;;;;;;;7.32;1.98;;;;;;;24.24;44.86;95176.50;5092095;27;20043;-68
2021/08/08 07:34:21;;;;;;;3.83;1.65;;;;;;;24.38;44.36;95186.22;5092371;27;20044;-68
2021/08/08 07:36:49;;;;;;;8.95;5.03;;;;;;;24.43;43.83;95172.75;5088953;28;20035;-69
2021/08/08 07:39:16;;;;;;;7.28;1.95;;;;;;;24.50;45.48;95167.75;5090751;28;20085;-68
2021/08/08 07:41:43;;;;;;;3.60;2.13;;;;;;;24.72;45.86;95174.09;5091967;27;20044;-68
2021/08/08 07:44:10;;;;;;;5.68;1.95;;;;;;;24.84;44.34;95171.59;5091063;28;21899;-68
2021/08/08 07:46:37;;;;;;;3.40;1.67;;;;;;;24.95;41.84;95172.84;5092376;28;20054;-68
2021/08/08 07:49:04;;;;;;;2.75;1.70;;;;;;;25.03;41.93;95167.81;5093483;27;20051;-68
2021/08/08 07:51:31;;;;;;;3.58;2.20;;;;;;;25.17;42.93;95168.44;5109697;27;20096;-69
2021/08/08 07:53:58;;;;;;;3.55;2.10;;;;;;;25.32;43.97;95170.66;5091558;28;20611;-68
2021/08/08 07:56:26;;;;;;;5.97;1.95;;;;;;;25.51;41.83;95166.84;5092789;27;20049;-69
2021/08/08 07:58:53;;;;;;;4.90;2.20;;;;;;;25.62;42.23;95168.03;5093933;28;20540;-69
2021/08/08 08:01:21;;;;;;;5.25;1.88;;;;;;;25.76;42.20;95163.28;5111040;27;20070;-68
2021/08/08 08:03:48;;;;;;;4.43;2.13;;;;;;;25.89;41.73;95160.75;5091899;27;20581;-69
2021/08/08 08:06:15;;;;;;;3.47;1.65;;;;;;;25.90;42.19;95163.09;5092432;28;20109;-69
2021/08/08 08:08:43;;;;;;;1.95;1.58;;;;;;;26.09;42.72;95170.75;5093713;27;20404;-69
2021/08/08 08:11:11;;;;;;;1.90;1.67;;;;;;;26.25;41.17;95175.50;5092027;27;20047;-69
2021/08/08 08:13:38;;;;;;;1.65;1.38;;;;;;;26.49;39.11;95173.03;5109442;27;20057;-69
2021/08/08 08:16:06;;;;;;;7.05;2.10;;;;;;;26.64;40.46;95177.03;5093346;27;20035;-69
2021/08/08 08:18:33;;;;;;;4.03;2.15;;;;;;;26.65;38.63;95175.13;5110150;27;20488;-69
2021/08/08 08:20:59;;;;;;;3.05;2.00;;;;;;;26.72;37.99;95185.31;5110422;27;20127;-69
2021/08/08 08:23:26;;;;;;;6.05;1.90;;;;;;;26.82;36.93;95175.00;5093194;27;20039;-69
2021/08/08 08:25:53;;;;;;;3.60;2.42;;;;;;;26.97;36.02;95175.53;5093393;28;20134;-69
2021/08/08 08:28:20;;;;;;;2.00;1.27;;;;;;;26.96;34.88;95157.94;5092140;28;20416;-69
2021/08/08 08:30:47;;;;;;;3.03;1.67;;;;;;;27.15;34.04;95166.25;5093527;27;20129;-69
2021/08/08 08:33:14;;;;;;;1.75;1.48;;;;;;;27.29;35.53;95166.00;5112995;27;20047;-69
2021/08/08 08:35:43;;;;;;;6.22;1.40;;;;;;;27.40;36.37;95166.38;5090079;27;20044;-69
2021/08/08 08:38:10;;;;;;;2.28;1.80;;;;;;;27.60;36.50;95165.53;5090031;27;20512;-70
2021/08/08 08:40:37;;;;;;;4.13;1.95;;;;;;;27.80;36.84;95163.91;5091753;27;20039;-69
2021/08/08 08:43:07;;;;;;;2.30;1.73;;;;;;;28.02;36.47;95162.72;5092567;27;20118;-70
2021/08/08 08:45:39;;;;;;;13.02;1.88;;;;;;;28.12;35.29;95152.66;5091685;27;20502;-70
2021/08/08 08:48:09;;;;;;;6.18;1.67;;;;;;;28.25;36.15;95145.41;5110072;27;20058;-70
2021/08/08 08:50:38;;;;;;;2.00;1.60;;;;;;;28.42;34.49;95150.53;5094090;27;20108;-70
2021/08/08 08:53:07;;;;;;;3.75;1.58;;;;;;;28.81;34.70;95155.47;5091022;28;20485;-70
2021/08/08 08:55:34;;;;;;;5.22;1.55;;;;;;;29.17;36.21;95168.78;5088849;28;20047;-70
2021/08/08 08:58:02;;;;;;;2.45;1.55;;;;;;;29.46;31.40;95164.19;5087219;28;20481;-70
2021/08/08 09:00:29;;;;;;;3.83;1.67;;;;;;;29.72;30.51;95160.22;5087492;28;20043;-70
2021/08/08 09:02:56;;;;;;;2.28;1.30;;;;;;;29.85;30.73;95161.72;5087336;27;20044;-70
2021/08/08 09:05:27;;;;;;;3.25;1.63;;;;;;;30.13;30.81;95163.53;5086636;28;20047;-70
2021/08/08 09:07:54;;;;;;;3.42;1.48;;;;;;;30.33;30.51;95166.28;5106348;27;20032;-70
2021/08/08 09:10:23;;;;;;;1.92;1.65;;;;;;;30.12;29.86;95156.59;5089536;28;20039;-70
2021/08/08 09:13:02;;;;;;;3.38;1.40;;;;;;;30.13;32.70;95158.16;5091067;28;20538;-70
2021/08/08 09:15:42;;;;;;;3.70;1.58;;;;;;;30.19;33.15;95156.75;5092452;27;20070;-70
2021/08/08 09:18:17;;;;;;;4.05;1.60;;;;;;;30.37;31.74;95156.41;5093575;27;20058;-70
2021/08/08 09:21:07;;;;;;;12.50;1.98;;;;;;;30.49;32.46;95153.63;5092502;27;20047;-70
2021/08/08 09:23:34;;;;;;;3.75;1.83;;;;;;;30.76;31.70;95161.88;5092413;27;20135;-71
2021/08/08 09:26:02;;;;;;;5.07;1.45;;;;;;;30.74;29.60;95143.41;5092608;28;20074;-70
2021/08/08 09:28:33;;;;;;;2.03;1.67;;;;;;;30.68;29.83;95150.97;5091411;27;20043;-70
2021/08/08 09:31:00;;;;;;;2.55;1.83;;;;;;;30.81;29.07;95150.81;5091378;27;20546;-70
2021/08/08 09:33:40;;;;;;;2.92;1.75;;;;;;;31.19;30.07;95152.00;5090977;28;20044;-70
2021/08/08 09:36:06;;;;;;;2.55;1.33;;;;;;;31.14;28.76;95149.59;5105319;27;20089;-70
2021/08/08 09:38:46;;;;;;;2.58;1.55;;;;;;;31.25;29.54;95155.94;5091510;28;20567;-70
2021/08/08 09:41:24;;;;;;;3.92;1.58;;;;;;;31.64;27.42;95150.50;5110412;27;20043;-71
2021/08/08 09:43:50;;;;;;;4.70;1.80;;;;;;;31.94;26.68;95152.53;5109051;27;20625;-71
2021/08/08 09:46:18;;;;;;;5.03;1.48;;;;;;;32.07;27.14;95145.84;5109701;28;20516;-71
2021/08/08 09:48:45;;;;;;;3.33;1.35;;;;;;;31.96;26.51;95150.25;5110340;28;20114;-70
2021/08/08 09:51:12;;;;;;;5.85;1.58;;;;;;;32.35;27.46;95147.41;5109231;28;20064;-71
2021/08/08 09:53:38;;;;;;;3.58;1.48;;;;;;;32.73;25.51;95148.31;5110235;27;20044;-71
2021/08/08 09:56:15;;;;;;;4.05;1.45;;;;;;;33.02;28.50;95148.66;5111804;28;20104;-70
2021/08/08 09:58:43;;;;;;;1.85;1.23;;;;;;;33.46;26.26;95139.91;5108955;28;20057;-71
2021/08/08 10:01:09;;;;;;;4.40;1.20;;;;;;;33.66;24.65;95148.63;5111826;28;20508;-71
2021/08/08 10:03:39;;;;;;;2.05;1.15;;;;;;;33.86;23.29;95151.88;5110442;28;20501;-71
2021/08/08 10:06:10;;;;;;;1.75;1.10;;;;;;;34.04;23.41;95147.38;5109017;28;20044;-71
2021/08/08 10:08:37;;;;;;;2.38;1.10;;;;;;;34.23;22.80;95153.72;5110183;28;20046;-71
2021/08/08 10:11:04;;;;;;;1.80;1.48;;;;;;;34.34;24.34;95159.97;5108955;28;20039;-71
2021/08/08 10:13:56;;;;;;;4.30;1.65;;;;;;;34.64;22.93;95157.03;5108882;28;20043;-71
2021/08/08 10:16:25;;;;;;;4.15;1.73;;;;;;;34.89;24.57;95144.84;5108851;28;20039;-71
2021/08/08 10:18:58;;;;;;;13.35;5.07;;;;;;;35.08;22.03;95159.97;5091533;28;20470;-71
2021/08/08 10:21:26;;;;;;;3.17;1.60;;;;;;;35.08;22.22;95152.63;5108524;28;20067;-71
2021/08/08 10:23:58;;;;;;;4.03;1.20;;;;;;;35.45;21.41;95157.00;5108804;28;20051;-71
2021/08/08 10:26:24;;;;;;;4.32;1.00;;;;;;;35.61;21.04;95152.00;5107415;28;20039;-71
2021/08/08 10:28:53;;;;;;;2.40;1.20;;;;;;;35.80;21.81;95150.13;5110138;28;20027;-72
2021/08/08 10:31:24;;;;;;;2.97;1.55;;;;;;;35.69;21.46;95146.59;5109458;28;20507;-71
2021/08/08 10:33:54;;;;;;;5.53;1.67;;;;;;;35.61;22.94;95154.72;5108879;28;20047;-71
2021/08/08 10:36:23;;;;;;;3.40;1.77;;;;;;;36.11;19.91;95147.78;5108126;27;20040;-72
2021/08/08 10:38:53;;;;;;;5.55;2.47;;;;;;;36.51;20.08;95140.38;5095295;27;20127;-71
2021/08/08 10:41:20;;;;;;;3.45;1.42;;;;;;;36.70;19.68;95126.41;5112509;27;20039;-71
2021/08/08 10:43:47;;;;;;;6.10;1.60;;;;;;;36.50;20.76;95136.13;5111221;27;20097;-71
2021/08/08 10:46:15;;;;;;;7.00;1.80;;;;;;;36.64;19.48;95138.78;5110810;27;20037;-71
2021/08/08 10:48:44;;;;;;;3.78;1.92;;;;;;;36.87;18.59;95135.63;5112222;27;20120;-72
2021/08/08 10:51:25;;;;;;;8.32;1.80;;;;;;;37.11;17.41;95139.44;5111934;27;20088;-72
2021/08/08 10:54:19;;;;;;;4.50;1.95;;;;;;;37.09;18.43;95127.41;5112630;27;20071;-72
2021/08/08 10:56:48;;;;;;;7.90;1.70;;;;;;;37.30;20.06;95129.25;5108452;27;20512;-71
2021/08/08 10:59:20;;;;;;;5.90;1.85;;;;;;;37.50;17.36;95133.00;5111865;27;20048;-72
2021/08/08 11:02:06;;;;;;;9.65;2.13;;;;;;;37.56;17.36;95124.44;5112835;27;20046;-72
2021/08/08 11:04:34;;;;;;;11.52;1.90;;;;;;;37.76;17.43;95122.78;5110893;27;20047;-72
2021/08/08 11:07:03;;;;;;;4.65;1.40;;;;;;;37.78;17.71;95131.28;5113101;27;20459;-72
2021/08/08 11:09:34;;;;;;;2.55;1.33;;;;;;;37.76;15.77;95133.66;5112109;27;20040;-72
2021/08/08 11:12:01;;;;;;;7.97;1.17;;;;;;;37.65;16.59;95127.50;5113363;27;20051;-72
2021/08/08 11:14:29;;;;;;;5.15;1.42;;;;;;;37.74;16.92;95124.34;5108112;27;20039;-71
2021/08/08 11:17:00;;;;;;;4.35;1.38;;;;;;;37.88;16.47;95130.41;5111197;27;20444;-71
2021/08/08 11:19:38;;;;;;;6.45;1.73;;;;;;;37.92;18.53;95129.63;5093466;27;20044;-72
2021/08/08 11:22:06;;;;;;;6.60;1.25;;;;;;;38.13;16.35;95117.81;5112541;27;20055;-71
2021/08/08 11:24:33;;;;;;;3.70;1.38;;;;;;;38.37;16.68;95116.00;5112699;27;20043;-72
2021/08/08 11:27:00;;;;;;;10.02;1.85;;;;;;;38.40;16.11;95115.22;5095662;27;20527;-72
2021/08/08 11:29:28;;;;;;;4.65;1.50;;;;;;;38.35;17.12;95102.06;5112696;27;20035;-72
2021/08/08 11:32:04;;;;;;;3.38;1.33;;;;;;;38.79;15.89;95114.03;5112169;27;20044;-72
2021/08/08 11:34:32;;;;;;;5.75;1.15;;;;;;;39.15;15.52;95108.91;5110412;27;20046;-72
2021/08/08 11:36:59;;;;;;;4.28;0.88;;;;;;;39.35;15.70;95106.31;5109090;27;20429;-72
2021/08/08 11:39:35;;;;;;;4.60;1.30;;;;;;;39.93;14.67;95110.91;5112230;27;20417;-72
2021/08/08 11:42:03;;;;;;;5.45;1.38;;;;;;;39.86;13.51;95105.56;5112313;27;20077;-73